Create Custom Reports and Graphics: Custom Report

Stanford Met Tower

Current Conditions

11/20/19 9:45 AM (-08:00)
Updated Every 15 Minutes
Temp 60.8 °F   0.1
RH 47 %   15
Dew Pt 40.6 °F   7.0
Wind Dir WNW | 289 °
Wind Spd 9.3 mph   4.0
Wind Gust 23.5 mph   6.0
Solar Rad 366 W/m2   19
Daily Min Temp 41.1 °F   4.4
Daily Max Temp 61.8 °F   0.3
Daily Max Wind 23.5 mph   6.0
Daily Rain 0.00 In
Min Temp Yest 45.5 °F
Max Temp Yest 64.5 °F
Max Wind Yest 45.0 mph
Rain Yest 0.00 In
Seasonal Rainfall 0.06 In

Last 48 Hours

Stanford Met Tower

Hourly Data | America/Los_Angeles
as of 11/20/19 9:50 AM PST
Date & Time Temp (°F) Temp Inversion (°F) RH (%) Dew Pt (°F) Wind Dir (°) Wind Spd (mph) Wind Gust (mph) Latest Rain (In) ETo Hr (in) ETo 2pm (In) Daily Rain (In) Daily Min Temp (°F) Daily Max Temp (°F)
11/20/19 - 0900 57.6 2.9 58 42.8 WSW | 240 7.5 12.3 0.00 0.002 0.06 0.00 41.1 57.9
11/20/19 - 0800 45.1 2.1 86 41.3 SW | 224 6.4 10.8 0.00 0.000 0.06 0.00 41.1 47.9
11/20/19 - 0700 42.6 2.9 91 40.2 SW | 217 7.1 13.8 0.00 0.000 0.06 0.00 41.1 47.9
11/20/19 - 0600 41.7 3.6 92 39.7 SSW | 207 7.5 12.3 0.00 0.000 0.06 0.00 41.1 47.9
11/20/19 - 0500 43.4 2.5 92 41.3 SSW | 204 8.0 12.0 0.00 0.000 0.06 0.00 41.1 47.9
11/20/19 - 0400 42.7 3.3 96 41.5 SW | 226 6.0 9.1 0.00 0.000 0.06 0.00 42.4 47.9
11/20/19 - 0300 44.2 1.7 95 42.9 SW | 220 6.7 10.6 0.00 0.000 0.06 0.00 42.6 47.9
11/20/19 - 0200 45.5 1.4 94 43.7 WSW | 237 7.3 10.1 0.00 0.000 0.06 0.00 44.7 47.9
11/20/19 - 0100 46.2 2.3 94 44.5 SW | 234 6.5 9.9 0.00 0.000 0.06 0.00 45.7 47.9
11/20/19 - 0000 46.9 3.5 92 44.6 SW | 230 5.3 10.2 0.00 0.000 0.06 0.00 45.5 64.5
11/19/19 - 2300 49.3 2.8 88 46.0 WNW | 299 4.1 9.2 0.00 0.000 0.06 0.00 45.5 64.5
11/19/19 - 2200 52.4 1.4 81 47.0 W | 275 5.8 16.8 0.00 0.000 0.06 0.00 45.5 64.5
11/19/19 - 2100 53.2 1.4 81 47.6 WNW | 296 5.4 20.2 0.00 0.000 0.06 0.00 45.5 64.5
11/19/19 - 2000 50.0 2.0 88 46.7 SSW | 203 4.3 16.8 0.00 0.000 0.06 0.00 45.5 64.5
11/19/19 - 1900 54.6 1.3 79 48.4 W | 271 8.9 23.0 0.00 0.000 0.06 0.00 45.5 64.5
11/19/19 - 1800 55.3 0.9 80 49.1 W | 271 15.3 39.4 0.00 0.000 0.06 0.00 45.5 64.5
11/19/19 - 1700 56.0 0.7 77 49.0 WNW | 282 11.8 33.2 0.00 0.000 0.06 0.00 45.5 64.5
11/19/19 - 1600 57.8 -0.7 73 49.4 W | 276 16.9 35.6 0.00 0.002 0.06 0.00 45.5 64.5
11/19/19 - 1500 59.6 -1.6 69 49.6 WNW | 282 18.3 45.0 0.00 0.004 0.06 0.00 45.5 64.5
11/19/19 - 1400 61.3 -3.4 64 49.1 W | 276 18.6 37.8 0.00 0.009 0.06 0.00 45.5 64.5
11/19/19 - 1300 61.5 -3.5 63 48.9 W | 269 21.6 42.1 0.00 0.011 0.06 0.00 45.5 64.5
11/19/19 - 1200 61.8 -3.5 63 49.1 WNW | 292 14.7 34.9 0.00 0.011 0.06 0.00 45.5 64.5
11/19/19 - 1100 62.8 -3.4 56 47.2 WNW | 301 10.5 26.8 0.00 0.009 0.06 0.00 45.5 63.7
11/19/19 - 1000 61.2 -1.6 58 46.3 WNW | 295 5.8 21.6 0.00 0.007 0.06 0.00 45.5 62.0
11/19/19 - 0900 58.6 1.9 65 46.8 N | 358 3.4 8.3 0.00 0.002 0.06 0.00 45.5 59.0
11/19/19 - 0800 50.0 5.6 97 49.1 W | 278 4.4 8.9 0.00 0.000 0.06 0.00 45.5 50.1
11/19/19 - 0700 47.0 5.5 98 46.5 W | 273 3.1 9.9 0.00 0.000 0.06 0.00 45.7 49.6
11/19/19 - 0600 46.5 7.0 97 45.6 SE | 145 4.1 10.9 0.00 0.000 0.06 0.00 45.7 49.6
11/19/19 - 0500 46.2 3.2 94 44.6 S | 184 5.5 11.2 0.00 0.000 0.06 0.00 46.1 49.6
11/19/19 - 0400 47.4 2.0 94 45.6 SSE | 164 3.7 11.2 0.00 0.000 0.06 0.00 46.1 49.6
11/19/19 - 0300 47.5 3.3 93 45.5 SE | 128 4.8 12.0 0.00 0.000 0.06 0.00 46.1 49.6
11/19/19 - 0200 46.2 3.8 91 43.9 S | 182 3.5 7.3 0.00 0.000 0.06 0.00 46.1 49.6
11/19/19 - 0100 47.9 3.7 87 44.3 SW | 218 6.1 12.9 0.00 0.000 0.06 0.00 47.4 49.6
11/19/19 - 0000 47.4 2.4 91 44.8 SW | 216 6.4 10.7 0.00 0.000 0.06 0.00 42.4 74.4
11/18/19 - 2300 49.5 2.7 88 46.0 S | 187 5.9 12.0 0.00 0.000 0.06 0.00 42.4 74.4
11/18/19 - 2200 49.6 4.0 91 47.1 SE | 127 4.7 9.8 0.00 0.000 0.06 0.00 42.4 74.4
11/18/19 - 2100 52.6 5.4 82 47.2 ESE | 116 4.9 14.5 0.00 0.000 0.06 0.00 42.4 74.4
11/18/19 - 2000 53.3 3.3 77 46.3 SSW | 203 8.0 14.3 0.00 0.000 0.06 0.00 42.4 74.4
11/18/19 - 1900 54.5 2.9 79 48.3 WSW | 248 4.1 10.2 0.00 0.000 0.06 0.00 42.4 74.4
11/18/19 - 1800 59.6 4.2 69 49.6 SSW | 213 5.6 12.3 0.00 0.000 0.06 0.00 42.4 74.4
11/18/19 - 1700 64.4 5.7 61 50.7 NW | 323 3.6 7.8 0.00 0.000 0.06 0.00 42.4 74.4
11/18/19 - 1600 73.2 0.8 45 50.3 NNW | 346 2.5 8.4 0.00 0.003 0.06 0.00 42.4 74.4
11/18/19 - 1500 73.5 -2.7 45 50.6 NNW | 337 4.2 9.9 0.00 0.007 0.06 0.00 42.4 73.7
11/18/19 - 1400 70.7 -4.7 49 50.9 NNW | 336 6.5 13.4 0.00 0.010 0.06 0.00 42.4 73.7
11/18/19 - 1300 71.1 -4.5 56 54.8 N | 0 6.0 12.7 0.00 0.012 0.06 0.00 42.4 73.7
11/18/19 - 1200 72.5 -5.5 44 49.4 ENE | 57 2.9 12.9 0.00 0.012 0.06 0.00 42.4 73.5
11/18/19 - 1100 68.7 -3.6 44 46.0 ENE | 61 3.1 8.7 0.00 0.010 0.06 0.00 42.4 69.9
11/18/19 - 1000 65.8 -1.5 55 49.3 WSW | 256 1.3 5.7 0.00 0.007 0.06 0.00 42.4 66.3
11/18/19 - 0900 59.6 1.6 68 49.0 SW | 218 2.9 9.7 0.00 0.002 0.06 0.00 42.4 60.0
Max 73.5 7.0 98 54.8 - 21.6 45.0 0.00 0.012 0.06 0.00 47.4 74.4
Avg 54.6 1.3 77 46.7 - 7.0 15.9 0.00 0.002 0.06 - - -
Min 41.7 -5.5 44 39.7 - 1.3 5.7 0.00 0.000 0.06 0.00 41.1 47.9
Total - - - - - - - 0.00 0.120 - - - -
Calm: 0.5%
Calm: 0.0%